createdAt,value
2016-09-09T00:00:12.827Z,22.70
2016-09-09T00:00:34.553Z,22.51
2016-09-09T00:00:56.437Z,22.45
2016-09-09T00:01:19.189Z,22.51
2016-09-09T00:01:40.923Z,22.57
2016-09-09T00:02:02.648Z,22.56
2016-09-09T00:02:24.387Z,22.58
2016-09-09T00:02:46.102Z,22.81
2016-09-09T00:03:07.829Z,23.01
2016-09-09T00:03:29.554Z,23.14
2016-09-09T00:03:51.275Z,23.11
2016-09-09T00:04:44.271Z,22.76
2016-09-09T00:05:06.034Z,22.84
2016-09-09T00:05:30.495Z,22.92
2016-09-09T00:05:52.219Z,22.87
2016-09-09T00:06:13.947Z,22.83
2016-09-09T00:07:16.482Z,22.91
2016-09-09T00:08:04.699Z,22.69
2016-09-09T00:08:26.485Z,22.76
2016-09-09T00:08:50.749Z,22.92
2016-09-09T00:09:17.240Z,22.96
2016-09-09T00:09:43.743Z,23.01
2016-09-09T00:10:31.957Z,23.25
2016-09-09T00:10:54.687Z,23.20
2016-09-09T00:11:16.450Z,23.10
2016-09-09T00:11:38.181Z,23.07
2016-09-09T00:12:00.910Z,23.16
2016-09-09T00:12:22.639Z,23.15
2016-09-09T00:13:10.869Z,23.06
2016-09-09T00:13:32.585Z,23.11
2016-09-09T00:13:54.318Z,23.08
2016-09-09T00:14:16.053Z,23.15
2016-09-09T00:14:37.787Z,23.04
2016-09-09T00:15:04.322Z,23.02
2016-09-09T00:15:35.586Z,23.08
2016-09-09T00:16:23.812Z,23.00
2016-09-09T00:16:45.531Z,22.89
2016-09-09T00:17:07.266Z,22.79
2016-09-09T00:17:33.755Z,22.89
2016-09-09T00:17:55.489Z,22.91
2016-09-09T00:18:17.243Z,22.94
2016-09-09T00:18:38.980Z,23.12
2016-09-09T00:19:27.202Z,23.10
2016-09-09T00:19:56.378Z,23.09
2016-09-09T00:20:18.104Z,23.10
2016-09-09T00:20:40.836Z,23.20
2016-09-09T00:21:02.553Z,23.09
2016-09-09T00:21:24.274Z,23.04
2016-09-09T00:21:48.523Z,23.08
2016-09-09T00:22:46.292Z,23.18
2016-09-09T00:23:08.159Z,23.16
2016-09-09T00:23:59.908Z,23.09
2016-09-09T00:24:52.898Z,22.81
2016-09-09T00:25:14.644Z,22.78
2016-09-09T00:25:39.221Z,22.76
2016-09-09T00:26:30.412Z,22.78
2016-09-09T00:26:56.926Z,22.68
2016-09-09T00:27:18.658Z,22.70
2016-09-09T00:27:40.383Z,22.63
2016-09-09T00:28:02.130Z,22.66
2016-09-09T00:28:23.864Z,22.79
2016-09-09T00:28:47.592Z,22.83
2016-09-09T00:29:14.079Z,22.96
2016-09-09T00:29:36.792Z,22.85
2016-09-09T00:29:58.523Z,22.77
2016-09-09T00:30:46.757Z,22.73
2016-09-09T00:31:13.250Z,22.83
2016-09-09T00:31:34.974Z,22.81
2016-09-09T00:31:56.711Z,22.70
2016-09-09T00:32:55.471Z,22.75
2016-09-09T00:33:17.227Z,22.86
2016-09-09T00:33:39.999Z,22.95
2016-09-09T00:34:01.726Z,22.93
2016-09-09T00:34:24.447Z,22.94
2016-09-09T00:34:47.183Z,22.81
2016-09-09T00:35:13.714Z,22.66
2016-09-09T00:35:35.442Z,22.54
2016-09-09T00:36:03.070Z,22.48
2016-09-09T00:36:25.813Z,22.32
2016-09-09T00:37:14.028Z,22.43
2016-09-09T00:37:35.782Z,22.49
2016-09-09T00:37:57.516Z,22.54
2016-09-09T00:38:19.301Z,22.67
2016-09-09T00:38:41.029Z,22.69
2016-09-09T00:39:02.761Z,22.83
2016-09-09T00:39:24.505Z,22.87
2016-09-09T00:39:46.225Z,22.71
2016-09-09T00:40:07.960Z,22.70
2016-09-09T00:40:29.685Z,22.75
2016-09-09T00:40:51.440Z,22.78
2016-09-09T00:41:13.202Z,22.74
2016-09-09T00:41:34.949Z,22.73
2016-09-09T00:41:56.680Z,22.75
2016-09-09T00:42:18.409Z,22.76
2016-09-09T00:42:40.139Z,22.78
2016-09-09T00:43:01.948Z,22.78
2016-09-09T00:43:23.672Z,22.75
2016-09-09T00:43:45.411Z,22.65
2016-09-09T00:44:07.119Z,22.58
2016-09-09T00:44:28.857Z,22.49
2016-09-09T00:44:50.585Z,22.29
2016-09-09T00:45:15.318Z,22.26
2016-09-09T00:45:37.042Z,22.30
2016-09-09T00:45:58.778Z,22.46
2016-09-09T00:46:20.533Z,22.49
2016-09-09T00:46:42.278Z,22.54
2016-09-09T00:47:03.995Z,22.61
2016-09-09T00:47:25.718Z,22.61
2016-09-09T00:47:47.445Z,22.61
2016-09-09T00:48:09.180Z,22.60
2016-09-09T00:48:30.904Z,22.60
2016-09-09T00:48:52.658Z,22.66
2016-09-09T00:49:14.403Z,22.72
2016-09-09T00:49:36.120Z,22.63
2016-09-09T00:49:57.860Z,22.43
2016-09-09T00:50:19.580Z,22.30
2016-09-09T00:50:41.327Z,22.12
2016-09-09T00:51:07.826Z,22.06
2016-09-09T00:51:29.542Z,22.17
2016-09-09T00:51:52.347Z,22.05
2016-09-09T00:52:14.070Z,21.95
2016-09-09T00:52:36.790Z,21.82
2016-09-09T00:52:58.527Z,21.89
2016-09-09T00:53:25.039Z,21.97
2016-09-09T00:53:51.522Z,22.15
2016-09-09T00:54:13.260Z,22.32
2016-09-09T00:54:36.089Z,22.34
2016-09-09T00:54:57.804Z,22.39
2016-09-09T00:55:24.297Z,22.55
2016-09-09T00:55:46.015Z,22.73
2016-09-09T00:56:07.730Z,22.71
2016-09-09T00:56:55.951Z,22.72
2016-09-09T00:57:18.668Z,22.69
2016-09-09T00:57:40.399Z,22.57
2016-09-09T00:58:02.134Z,22.40
2016-09-09T00:58:23.911Z,22.35
2016-09-09T00:58:45.628Z,22.30
2016-09-09T00:59:12.124Z,22.30
2016-09-09T00:59:34.866Z,22.30
2016-09-09T00:59:57.590Z,22.36
2016-09-09T01:00:19.321Z,22.37
2016-09-09T01:01:38.799Z,22.42
2016-09-09T01:02:00.543Z,22.35
2016-09-09T01:02:22.264Z,22.23
2016-09-09T01:02:46.028Z,22.19
2016-09-09T01:03:07.759Z,22.16
2016-09-09T01:03:29.493Z,22.18
2016-09-09T01:03:52.226Z,22.15
2016-09-09T01:04:19.734Z,22.08
2016-09-09T01:04:42.480Z,22.00
2016-09-09T01:05:04.220Z,22.00
2016-09-09T01:05:26.946Z,22.05
2016-09-09T01:05:48.696Z,22.00
2016-09-09T01:06:11.423Z,21.94
2016-09-09T01:06:33.174Z,21.90
2016-09-09T01:06:54.895Z,21.92
2016-09-09T01:07:16.633Z,21.95
2016-09-09T01:07:40.357Z,22.05
2016-09-09T01:08:04.811Z,22.20
2016-09-09T01:08:26.435Z,22.30
2016-09-09T01:08:48.156Z,22.14
2016-09-09T01:09:09.878Z,21.92
2016-09-09T01:09:31.596Z,21.77
2016-09-09T01:09:53.325Z,21.64
2016-09-09T01:10:16.044Z,21.49
2016-09-09T01:10:42.547Z,21.57
2016-09-09T01:11:04.418Z,21.71
2016-09-09T01:11:26.133Z,21.50
2016-09-09T01:11:47.858Z,21.38
2016-09-09T01:12:09.591Z,21.37
2016-09-09T01:12:31.312Z,21.34
2016-09-09T01:12:53.039Z,21.39
2016-09-09T01:13:14.771Z,21.53
2016-09-09T01:13:36.505Z,21.61
2016-09-09T01:13:58.217Z,21.70
2016-09-09T01:14:19.952Z,21.78
2016-09-09T01:14:41.680Z,21.62
2016-09-09T01:15:03.417Z,21.44
2016-09-09T01:15:25.138Z,21.48
2016-09-09T01:15:46.895Z,21.63
2016-09-09T01:16:08.630Z,21.70
2016-09-09T01:16:30.358Z,21.72
2016-09-09T01:16:52.096Z,21.75
2016-09-09T01:17:40.315Z,21.79
2016-09-09T01:18:02.044Z,21.95
2016-09-09T01:18:23.766Z,22.05
2016-09-09T01:18:45.494Z,21.94
2016-09-09T01:19:07.212Z,21.92
2016-09-09T01:19:29.932Z,21.97
2016-09-09T01:19:51.686Z,21.86
2016-09-09T01:20:13.469Z,21.76
2016-09-09T01:20:36.186Z,21.68
2016-09-09T01:20:57.919Z,21.61
2016-09-09T01:21:19.637Z,21.55
2016-09-09T01:21:41.369Z,21.64
2016-09-09T01:22:03.094Z,21.64
2016-09-09T01:22:24.813Z,21.70
2016-09-09T01:22:46.608Z,21.68
2016-09-09T01:23:08.352Z,21.69
2016-09-09T01:23:30.079Z,21.71
2016-09-09T01:23:51.810Z,21.82
2016-09-09T01:24:13.526Z,21.77
2016-09-09T01:24:35.273Z,21.64
2016-09-09T01:24:56.998Z,21.49
2016-09-09T01:25:18.723Z,21.35
2016-09-09T01:25:40.445Z,21.19
2016-09-09T01:26:02.183Z,21.24
2016-09-09T01:26:23.901Z,21.20
2016-09-09T01:26:45.615Z,21.18
2016-09-09T01:27:07.330Z,21.31
2016-09-09T01:27:33.840Z,21.53
2016-09-09T01:27:55.586Z,21.61
2016-09-09T01:28:17.311Z,21.71
2016-09-09T01:28:39.033Z,21.74
2016-09-09T01:29:00.771Z,21.88
2016-09-09T01:29:23.497Z,21.96
2016-09-09T01:29:45.218Z,21.92
2016-09-09T01:30:06.960Z,21.57
2016-09-09T01:30:29.683Z,21.35
2016-09-09T01:30:56.176Z,21.18
2016-09-09T01:31:17.922Z,21.15
2016-09-09T01:31:39.693Z,21.15
2016-09-09T01:32:01.436Z,21.20
2016-09-09T01:32:23.154Z,21.36
2016-09-09T01:32:44.895Z,21.47
2016-09-09T01:33:06.620Z,21.49
2016-09-09T01:33:28.346Z,21.49
2016-09-09T01:33:50.147Z,21.50
2016-09-09T01:34:11.868Z,21.52
2016-09-09T01:34:34.592Z,21.42
2016-09-09T01:34:56.307Z,21.41
2016-09-09T01:35:18.038Z,21.49
2016-09-09T01:35:39.769Z,21.72
2016-09-09T01:36:02.535Z,21.88
2016-09-09T01:36:24.281Z,22.08
2016-09-09T01:37:12.502Z,22.11
2016-09-09T01:37:37.196Z,22.01
2016-09-09T01:37:58.973Z,21.92
2016-09-09T01:38:20.701Z,21.82
2016-09-09T01:38:42.429Z,21.70
2016-09-09T01:39:04.159Z,21.79
2016-09-09T01:39:25.885Z,21.89
2016-09-09T01:39:47.618Z,21.93
2016-09-09T01:40:09.344Z,21.93
2016-09-09T01:40:31.089Z,21.89
2016-09-09T01:40:52.808Z,21.97
2016-09-09T01:41:14.524Z,22.04
2016-09-09T01:41:36.262Z,22.04
2016-09-09T01:41:57.984Z,22.02
2016-09-09T01:42:19.719Z,22.02
2016-09-09T01:42:46.211Z,22.06
2016-09-09T01:43:07.932Z,22.15
2016-09-09T01:43:29.657Z,22.26
2016-09-09T01:43:51.389Z,22.33
2016-09-09T01:44:13.129Z,22.25
2016-09-09T01:44:34.845Z,22.19
2016-09-09T01:44:56.572Z,21.84
2016-09-09T01:45:18.291Z,21.60
2016-09-09T01:46:06.505Z,21.24
2016-09-09T01:46:28.237Z,21.26
2016-09-09T01:46:49.958Z,21.29
2016-09-09T01:47:11.685Z,21.23
2016-09-09T01:47:33.414Z,21.11
2016-09-09T01:47:55.142Z,21.16
2016-09-09T01:48:16.870Z,21.18
2016-09-09T01:48:38.602Z,21.17
2016-09-09T01:49:00.329Z,21.12
2016-09-09T01:49:22.052Z,21.16
2016-09-09T01:49:43.787Z,21.25
2016-09-09T01:50:05.507Z,21.23
2016-09-09T01:50:27.229Z,21.23
2016-09-09T01:50:48.959Z,21.40
2016-09-09T01:51:10.684Z,21.54
2016-09-09T01:51:32.416Z,21.59
2016-09-09T01:52:25.399Z,21.70
2016-09-09T01:52:47.129Z,21.63
2016-09-09T01:53:08.851Z,21.53
2016-09-09T01:53:31.565Z,21.47
2016-09-09T01:53:53.312Z,21.38
2016-09-09T01:54:15.037Z,21.37
2016-09-09T01:54:36.767Z,21.42
2016-09-09T01:54:59.503Z,21.51
2016-09-09T01:55:21.235Z,21.60
2016-09-09T01:55:42.957Z,21.68
2016-09-09T01:56:04.685Z,21.70
2016-09-09T01:56:26.420Z,21.73
2016-09-09T01:56:48.175Z,21.83
2016-09-09T01:57:10.912Z,21.88
2016-09-09T01:57:32.650Z,22.04
2016-09-09T01:57:55.373Z,22.01
2016-09-09T01:58:18.097Z,21.95
2016-09-09T01:58:39.812Z,21.95
2016-09-09T01:59:01.769Z,22.01
2016-09-09T01:59:23.382Z,22.05
2016-09-09T01:59:45.114Z,22.04
2016-09-09T02:00:16.375Z,21.92
2016-09-09T02:00:40.797Z,21.72
2016-09-09T02:01:09.824Z,21.56
2016-09-09T02:01:58.042Z,21.53
2016-09-09T02:02:19.760Z,21.66
2016-09-09T02:02:41.484Z,21.55
2016-09-09T02:03:03.237Z,21.47
2016-09-09T02:03:24.972Z,21.47
2016-09-09T02:03:46.704Z,21.31
2016-09-09T02:04:13.190Z,21.35
2016-09-09T02:04:42.230Z,21.56
2016-09-09T02:05:05.945Z,21.69
2016-09-09T02:05:27.666Z,21.58
2016-09-09T02:05:49.385Z,21.52
2016-09-09T02:06:11.155Z,21.49
2016-09-09T02:06:32.889Z,21.59
2016-09-09T02:07:01.900Z,21.68
2016-09-09T02:07:23.631Z,21.75
2016-09-09T02:07:45.357Z,21.81
2016-09-09T02:08:07.088Z,21.91
2016-09-09T02:08:28.832Z,21.87
2016-09-09T02:08:50.550Z,21.72
2016-09-09T02:09:12.272Z,21.68
2016-09-09T02:09:34.992Z,21.61
2016-09-09T02:09:56.714Z,21.68
2016-09-09T02:10:18.442Z,21.73
2016-09-09T02:10:40.182Z,21.67
2016-09-09T02:11:01.903Z,21.60
2016-09-09T02:11:23.650Z,21.70
2016-09-09T02:11:45.376Z,21.75
2016-09-09T02:12:07.104Z,21.65
2016-09-09T02:12:28.822Z,21.56
2016-09-09T02:12:50.553Z,21.47
2016-09-09T02:13:12.285Z,21.41
2016-09-09T02:13:33.996Z,21.29
2016-09-09T02:14:00.489Z,21.29
2016-09-09T02:14:22.202Z,21.30
2016-09-09T02:14:43.923Z,21.32
2016-09-09T02:15:05.660Z,21.39
2016-09-09T02:15:27.389Z,21.58
2016-09-09T02:15:49.111Z,21.80
2016-09-09T02:16:10.825Z,21.97
2016-09-09T02:16:32.554Z,22.02
2016-09-09T02:16:54.275Z,21.96
2016-09-09T02:17:15.990Z,22.02
2016-09-09T02:17:37.718Z,21.95
2016-09-09T02:17:59.434Z,21.78
2016-09-09T02:18:21.165Z,21.80
2016-09-09T02:18:42.879Z,21.88
2016-09-09T02:19:04.614Z,21.91
2016-09-09T02:19:26.339Z,21.93
2016-09-09T02:19:48.080Z,21.83
2016-09-09T02:20:09.803Z,21.71
2016-09-09T02:20:31.526Z,21.62
2016-09-09T02:20:53.250Z,21.63
2016-09-09T02:21:15.049Z,21.62
2016-09-09T02:21:36.767Z,21.73
2016-09-09T02:21:58.495Z,21.80
2016-09-09T02:22:21.209Z,21.85
2016-09-09T02:22:42.936Z,21.70
2016-09-09T02:23:04.671Z,21.63
2016-09-09T02:23:26.390Z,21.75
2016-09-09T02:23:52.890Z,21.87
2016-09-09T02:24:17.184Z,22.02
2016-09-09T02:24:40.916Z,21.98
2016-09-09T02:25:02.646Z,21.98
2016-09-09T02:25:24.374Z,21.95
2016-09-09T02:25:46.099Z,21.77
2016-09-09T02:26:07.911Z,21.67
2016-09-09T02:26:29.639Z,21.51
2016-09-09T02:27:17.846Z,21.38
2016-09-09T02:27:39.574Z,21.43
2016-09-09T02:28:32.557Z,21.21
2016-09-09T02:28:54.287Z,21.17
2016-09-09T02:29:16.016Z,21.12
2016-09-09T02:29:37.798Z,21.22
2016-09-09T02:29:59.529Z,21.40
2016-09-09T02:30:21.251Z,21.48
2016-09-09T02:30:42.966Z,21.58
2016-09-09T02:31:04.691Z,21.40
2016-09-09T02:31:26.416Z,21.27
2016-09-09T02:31:48.144Z,21.18
2016-09-09T02:32:09.872Z,21.10
2016-09-09T02:32:31.597Z,20.99
2016-09-09T02:32:53.324Z,21.08
2016-09-09T02:33:15.078Z,21.14
2016-09-09T02:33:36.799Z,21.18
2016-09-09T02:33:58.522Z,21.25
2016-09-09T02:34:20.244Z,21.34
2016-09-09T02:34:41.965Z,21.48
2016-09-09T02:35:03.693Z,21.58
2016-09-09T02:35:25.434Z,21.74
2016-09-09T02:35:47.162Z,21.81
2016-09-09T02:36:08.893Z,21.78
2016-09-09T02:36:30.631Z,21.80
2016-09-09T02:36:52.361Z,21.89
2016-09-09T02:37:14.093Z,21.85
2016-09-09T02:37:35.818Z,21.83
2016-09-09T02:37:57.575Z,21.80
2016-09-09T02:38:19.309Z,21.76
2016-09-09T02:38:45.792Z,21.77
2016-09-09T02:39:07.529Z,21.72
2016-09-09T02:39:29.261Z,21.74
2016-09-09T02:39:50.992Z,21.76
2016-09-09T02:40:17.508Z,21.66
2016-09-09T02:40:39.230Z,21.63
2016-09-09T02:41:00.955Z,21.56
2016-09-09T02:41:22.692Z,21.60
2016-09-09T02:41:44.416Z,21.56
2016-09-09T02:42:06.134Z,21.49
2016-09-09T02:42:27.895Z,21.27
2016-09-09T02:42:50.627Z,21.05
2016-09-09T02:43:13.357Z,20.94
2016-09-09T02:43:35.101Z,20.88
2016-09-09T02:43:56.845Z,20.85
2016-09-09T02:44:18.596Z,20.80
2016-09-09T02:44:40.327Z,20.74
2016-09-09T02:45:02.051Z,20.68
2016-09-09T02:45:23.783Z,20.74
2016-09-09T02:45:46.528Z,20.69
2016-09-09T02:46:08.256Z,20.72
2016-09-09T02:46:29.988Z,20.75
2016-09-09T02:46:51.705Z,20.76
2016-09-09T02:47:14.438Z,20.83
2016-09-09T02:47:36.163Z,20.85
2016-09-09T02:48:02.666Z,20.69
2016-09-09T02:48:24.394Z,20.66
2016-09-09T02:48:46.131Z,20.76
2016-09-09T02:49:07.859Z,20.76
2016-09-09T02:49:29.582Z,20.82
2016-09-09T02:49:51.303Z,20.76
2016-09-09T02:50:13.031Z,20.68
2016-09-09T02:50:34.759Z,20.68
2016-09-09T02:50:56.486Z,20.64
2016-09-09T02:51:18.236Z,20.60
2016-09-09T02:51:40.080Z,20.54
2016-09-09T02:52:01.812Z,20.44
2016-09-09T02:52:23.530Z,20.43
2016-09-09T02:52:45.252Z,20.37
2016-09-09T02:53:06.986Z,20.39
2016-09-09T02:53:28.710Z,20.40
2016-09-09T02:53:50.445Z,20.48
2016-09-09T02:54:12.173Z,20.41
2016-09-09T02:54:34.903Z,20.41
2016-09-09T02:54:56.636Z,20.43
2016-09-09T02:55:18.381Z,20.67
2016-09-09T02:55:40.126Z,20.77
2016-09-09T02:56:01.856Z,20.87
2016-09-09T02:56:23.587Z,21.00
2016-09-09T02:56:45.303Z,21.12
2016-09-09T02:57:07.053Z,21.21
2016-09-09T02:57:28.797Z,21.28
2016-09-09T02:57:55.299Z,21.37
2016-09-09T02:58:17.024Z,21.36
2016-09-09T02:58:38.755Z,21.29
2016-09-09T02:59:00.490Z,21.20
2016-09-09T02:59:22.202Z,21.02
2016-09-09T02:59:43.943Z,20.90
2016-09-09T03:00:05.786Z,20.93
2016-09-09T03:00:27.518Z,21.05
2016-09-09T03:00:49.251Z,20.98
2016-09-09T03:01:10.989Z,21.06
2016-09-09T03:01:32.724Z,21.01
2016-09-09T03:01:54.464Z,20.95
2016-09-09T03:02:16.190Z,20.94
2016-09-09T03:02:38.909Z,20.90
2016-09-09T03:03:00.650Z,20.88
2016-09-09T03:03:27.249Z,20.84
2016-09-09T03:03:48.966Z,20.84
2016-09-09T03:04:10.695Z,20.84
2016-09-09T03:04:32.496Z,20.93
2016-09-09T03:04:54.234Z,20.89
2016-09-09T03:05:15.958Z,20.85
2016-09-09T03:05:37.667Z,20.88
2016-09-09T03:05:59.396Z,20.96
2016-09-09T03:06:21.120Z,21.21
2016-09-09T03:06:42.870Z,21.40
2016-09-09T03:07:04.596Z,21.50
2016-09-09T03:07:26.324Z,21.45
2016-09-09T03:07:48.061Z,21.33
2016-09-09T03:08:09.782Z,21.13
2016-09-09T03:08:32.514Z,21.04
2016-09-09T03:08:57.130Z,21.00
2016-09-09T03:09:18.797Z,21.18
2016-09-09T03:09:40.532Z,21.36
2016-09-09T03:10:02.249Z,21.49
2016-09-09T03:10:26.990Z,21.61
2016-09-09T03:10:48.725Z,21.40
2016-09-09T03:11:11.461Z,21.40
2016-09-09T03:11:33.303Z,21.23
2016-09-09T03:11:55.040Z,21.24
2016-09-09T03:12:16.768Z,21.34
2016-09-09T03:12:38.493Z,21.32
2016-09-09T03:13:00.215Z,21.39
2016-09-09T03:13:21.936Z,21.31
2016-09-09T03:13:43.670Z,21.11
2016-09-09T03:14:05.388Z,20.99
2016-09-09T03:14:29.112Z,20.90
2016-09-09T03:14:50.851Z,20.82
2016-09-09T03:15:12.576Z,20.84
2016-09-09T03:15:34.298Z,20.90
2016-09-09T03:15:57.030Z,20.86
2016-09-09T03:16:18.762Z,20.87
2016-09-09T03:16:40.685Z,20.86
2016-09-09T03:17:07.207Z,20.90
2016-09-09T03:17:55.429Z,20.86
2016-09-09T03:18:17.155Z,20.77
2016-09-09T03:18:38.880Z,20.77
2016-09-09T03:19:01.613Z,20.77
2016-09-09T03:19:23.344Z,20.83
2016-09-09T03:19:45.203Z,20.90
2016-09-09T03:20:07.913Z,20.94
2016-09-09T03:20:29.642Z,21.00
2016-09-09T03:20:52.362Z,21.13
2016-09-09T03:21:14.080Z,21.11
2016-09-09T03:21:36.796Z,21.07
2016-09-09T03:21:58.522Z,21.01
2016-09-09T03:22:25.012Z,20.87
2016-09-09T03:22:46.733Z,20.98
2016-09-09T03:23:08.451Z,20.94
2016-09-09T03:23:31.177Z,20.96
2016-09-09T03:23:52.902Z,20.99
2016-09-09T03:24:56.192Z,20.91
2016-09-09T03:25:44.454Z,20.87
2016-09-09T03:26:07.142Z,20.90
2016-09-09T03:26:28.881Z,20.87
2016-09-09T03:26:51.625Z,20.91
2016-09-09T03:27:15.337Z,20.92
2016-09-09T03:27:37.059Z,20.92
2016-09-09T03:27:58.778Z,20.88
2016-09-09T03:28:47.005Z,20.80
2016-09-09T03:29:09.722Z,20.79
2016-09-09T03:29:31.449Z,20.86
2016-09-09T03:29:55.187Z,20.83
2016-09-09T03:30:18.954Z,20.82
2016-09-09T03:30:40.682Z,20.93
2016-09-09T03:31:02.429Z,20.95
2016-09-09T03:31:51.642Z,20.92
2016-09-09T03:32:13.367Z,20.86
2016-09-09T03:32:35.082Z,20.84
2016-09-09T03:33:01.580Z,20.74
2016-09-09T03:33:23.344Z,20.74
2016-09-09T03:33:45.082Z,20.73
2016-09-09T03:34:07.814Z,20.68
2016-09-09T03:34:29.539Z,20.66
2016-09-09T03:34:51.286Z,20.64
2016-09-09T03:35:13.015Z,20.72
2016-09-09T03:35:34.765Z,20.78
2016-09-09T03:35:56.515Z,20.85
2016-09-09T03:36:18.250Z,20.97
2016-09-09T03:37:11.252Z,21.33
2016-09-09T03:37:32.979Z,21.31
2016-09-09T03:37:59.475Z,21.25
2016-09-09T03:38:23.196Z,21.17
2016-09-09T03:38:44.918Z,21.05
2016-09-09T03:39:06.649Z,20.85
2016-09-09T03:39:33.153Z,20.78
2016-09-09T03:39:55.877Z,20.76
2016-09-09T03:40:44.081Z,20.70
2016-09-09T03:41:05.815Z,20.80
2016-09-09T03:41:27.555Z,20.78
2016-09-09T03:41:49.281Z,20.70
2016-09-09T03:42:11.014Z,20.58
2016-09-09T03:42:32.733Z,20.61
2016-09-09T03:42:54.467Z,20.62
2016-09-09T03:43:16.185Z,20.71
2016-09-09T03:43:37.911Z,20.84
2016-09-09T03:43:59.644Z,20.87
2016-09-09T03:44:21.357Z,20.96
2016-09-09T03:44:43.082Z,21.02
2016-09-09T03:45:04.801Z,21.05
2016-09-09T03:45:26.525Z,20.98
2016-09-09T03:45:48.262Z,20.96
2016-09-09T03:46:09.996Z,21.07
2016-09-09T03:46:31.718Z,21.09
2016-09-09T03:46:53.437Z,20.96
2016-09-09T03:47:15.166Z,20.80
2016-09-09T03:47:36.899Z,20.66
2016-09-09T03:47:58.621Z,20.69
2016-09-09T03:48:20.346Z,20.66
2016-09-09T03:48:42.061Z,20.70
2016-09-09T03:49:03.792Z,20.63
2016-09-09T03:49:25.520Z,20.53
2016-09-09T03:49:47.241Z,20.44
2016-09-09T03:50:09.015Z,20.43
2016-09-09T03:50:30.739Z,20.38
2016-09-09T03:50:52.457Z,20.29
2016-09-09T03:51:14.179Z,20.24
2016-09-09T03:51:35.904Z,20.33
2016-09-09T03:51:57.629Z,20.45
2016-09-09T03:52:19.338Z,20.50
2016-09-09T03:52:41.072Z,20.63
2016-09-09T03:53:02.790Z,20.66
2016-09-09T03:53:24.515Z,20.65
2016-09-09T03:53:46.259Z,20.63
2016-09-09T03:54:07.982Z,20.65
2016-09-09T03:54:29.703Z,20.62
2016-09-09T03:54:51.439Z,20.63
2016-09-09T03:55:39.651Z,20.72
2016-09-09T03:56:01.385Z,20.65
2016-09-09T03:56:23.098Z,20.56
2016-09-09T03:56:44.818Z,20.61
2016-09-09T03:57:06.537Z,20.59
2016-09-09T03:57:28.281Z,20.61
2016-09-09T03:57:49.987Z,20.45
2016-09-09T03:58:11.706Z,20.36
2016-09-09T03:58:33.433Z,20.34
2016-09-09T03:58:55.171Z,20.35
2016-09-09T03:59:16.918Z,20.46
2016-09-09T03:59:38.684Z,20.59
2016-09-09T04:00:00.416Z,20.61
2016-09-09T04:00:23.139Z,20.61
2016-09-09T04:00:44.870Z,20.53
2016-09-09T04:01:06.617Z,20.43
2016-09-09T04:01:28.345Z,20.42
2016-09-09T04:01:54.842Z,20.41
2016-09-09T04:02:16.570Z,20.39
2016-09-09T04:02:38.297Z,20.45
2016-09-09T04:03:02.857Z,20.46
2016-09-09T04:03:24.573Z,20.44
2016-09-09T04:03:46.304Z,20.55
2016-09-09T04:04:08.033Z,20.55
2016-09-09T04:04:29.756Z,20.63
2016-09-09T04:04:51.488Z,20.78
2016-09-09T04:05:39.716Z,20.90
2016-09-09T04:06:01.434Z,20.77
2016-09-09T04:06:23.167Z,20.63
2016-09-09T04:06:44.890Z,20.73
2016-09-09T04:07:06.618Z,20.54
2016-09-09T04:07:28.359Z,20.34
2016-09-09T04:07:50.102Z,20.20
2016-09-09T04:08:11.820Z,20.11
2016-09-09T04:08:33.558Z,20.03
2016-09-09T04:09:00.042Z,19.95
2016-09-09T04:09:21.766Z,19.94
2016-09-09T04:09:43.485Z,19.92
2016-09-09T04:10:05.207Z,19.85
2016-09-09T04:10:26.947Z,19.85
2016-09-09T04:10:48.675Z,19.84
2016-09-09T04:11:10.407Z,19.86
2016-09-09T04:11:32.128Z,19.86
2016-09-09T04:11:53.853Z,19.93
2016-09-09T04:12:15.590Z,19.96
2016-09-09T04:12:37.324Z,20.03
2016-09-09T04:12:59.044Z,20.09
2016-09-09T04:13:20.765Z,20.15
2016-09-09T04:13:42.486Z,20.05
2016-09-09T04:14:04.211Z,20.00
2016-09-09T04:14:25.933Z,20.15
2016-09-09T04:14:47.661Z,20.32
2016-09-09T04:15:09.396Z,20.43
2016-09-09T04:15:31.121Z,20.48
2016-09-09T04:15:52.954Z,20.53
2016-09-09T04:16:14.679Z,20.61
2016-09-09T04:16:36.410Z,20.67
2016-09-09T04:16:58.134Z,20.75
2016-09-09T04:17:19.858Z,20.86
2016-09-09T04:17:41.592Z,20.87
2016-09-09T04:18:03.309Z,20.99
2016-09-09T04:18:25.034Z,21.05
2016-09-09T04:18:46.755Z,21.08
2016-09-09T04:19:34.979Z,21.08
2016-09-09T04:19:56.719Z,21.01
2016-09-09T04:20:18.429Z,21.01
2016-09-09T04:20:40.256Z,21.03
2016-09-09T04:21:01.987Z,21.11
2016-09-09T04:21:23.718Z,21.18
2016-09-09T04:21:45.446Z,21.24
2016-09-09T04:22:08.160Z,21.25
2016-09-09T04:22:29.892Z,21.22
2016-09-09T04:22:51.626Z,21.04
2016-09-09T04:23:13.359Z,20.87
2016-09-09T04:23:35.082Z,20.75
2016-09-09T04:23:56.797Z,20.66
2016-09-09T04:24:18.532Z,20.55
2016-09-09T04:24:40.269Z,20.46
2016-09-09T04:25:02.009Z,20.43
2016-09-09T04:25:24.774Z,20.49
2016-09-09T04:25:46.495Z,20.55
2016-09-09T04:26:08.240Z,20.52
2016-09-09T04:26:30.967Z,20.40
2016-09-09T04:26:52.707Z,20.23
2016-09-09T04:27:14.477Z,20.14
2016-09-09T04:27:36.199Z,20.21
2016-09-09T04:27:57.952Z,20.32
2016-09-09T04:28:19.680Z,20.42
2016-09-09T04:28:41.395Z,20.41
2016-09-09T04:29:03.116Z,20.38
2016-09-09T04:29:24.851Z,20.42
2016-09-09T04:29:46.570Z,20.32
2016-09-09T04:30:08.295Z,20.24
2016-09-09T04:30:30.016Z,20.20
2016-09-09T04:30:51.747Z,20.16
2016-09-09T04:31:13.475Z,20.13
2016-09-09T04:31:35.197Z,20.24
2016-09-09T04:32:01.690Z,20.17
2016-09-09T04:32:23.420Z,20.05
2016-09-09T04:32:45.152Z,19.90
2016-09-09T04:33:07.879Z,19.83
2016-09-09T04:33:30.609Z,19.77
2016-09-09T04:33:52.343Z,19.73
2016-09-09T04:34:14.067Z,19.82
2016-09-09T04:34:40.553Z,19.89
2016-09-09T04:35:02.282Z,19.81
2016-09-09T04:35:25.033Z,19.80
2016-09-09T04:35:46.858Z,19.80
2016-09-09T04:36:08.591Z,19.79
2016-09-09T04:36:30.326Z,19.84
2016-09-09T04:36:52.054Z,19.80
2016-09-09T04:37:13.786Z,19.82
2016-09-09T04:37:46.051Z,19.93
2016-09-09T04:38:07.782Z,19.99
2016-09-09T04:38:29.516Z,19.98
2016-09-09T04:38:51.228Z,19.98
2016-09-09T04:39:12.948Z,19.96
2016-09-09T04:39:35.667Z,20.03
2016-09-09T04:39:57.404Z,19.97
2016-09-09T04:40:19.118Z,19.95
2016-09-09T04:40:45.621Z,19.87
2016-09-09T04:41:07.360Z,19.83
2016-09-09T04:41:29.091Z,19.89
2016-09-09T04:41:50.819Z,19.92
2016-09-09T04:42:12.537Z,19.96
2016-09-09T04:42:34.268Z,19.97
2016-09-09T04:42:55.987Z,20.01
2016-09-09T04:43:17.724Z,20.09
2016-09-09T04:43:39.446Z,20.10
2016-09-09T04:44:01.171Z,20.13
2016-09-09T04:44:22.899Z,20.18
2016-09-09T04:44:44.627Z,20.22
2016-09-09T04:45:06.358Z,20.22
2016-09-09T04:45:28.093Z,20.32
2016-09-09T04:45:49.811Z,20.47
2016-09-09T04:46:11.543Z,20.64
2016-09-09T04:46:33.267Z,20.64
2016-09-09T04:46:59.756Z,20.55
2016-09-09T04:47:21.472Z,20.59
2016-09-09T04:47:43.197Z,20.68
2016-09-09T04:48:04.919Z,20.62
2016-09-09T04:48:27.638Z,20.54
2016-09-09T04:48:49.372Z,20.37
2016-09-09T04:49:11.094Z,20.17
2016-09-09T04:49:32.831Z,20.19
2016-09-09T04:49:54.566Z,20.25
2016-09-09T04:50:16.291Z,20.30
2016-09-09T04:50:38.028Z,20.37
2016-09-09T04:50:59.811Z,20.32
2016-09-09T04:51:21.542Z,20.33
2016-09-09T04:51:43.271Z,20.22
2016-09-09T04:52:04.998Z,20.21
2016-09-09T04:52:26.728Z,20.27
2016-09-09T04:52:48.530Z,20.20
2016-09-09T04:53:10.281Z,20.16
2016-09-09T04:53:32.060Z,20.11
2016-09-09T04:53:53.810Z,20.12
2016-09-09T04:54:15.529Z,20.11
2016-09-09T04:54:37.266Z,20.07
2016-09-09T04:54:58.989Z,20.11
2016-09-09T04:55:20.701Z,20.04
2016-09-09T04:55:42.435Z,19.98
2016-09-09T04:56:04.180Z,19.90
2016-09-09T04:56:25.884Z,19.86
2016-09-09T04:56:47.622Z,19.81
2016-09-09T04:57:09.340Z,19.82
2016-09-09T04:57:31.075Z,19.81
2016-09-09T04:57:52.809Z,19.76
2016-09-09T04:58:14.534Z,19.70
2016-09-09T04:58:36.265Z,19.72
2016-09-09T04:58:58.017Z,19.75
2016-09-09T04:59:19.740Z,19.73
2016-09-09T04:59:41.491Z,19.80
2016-09-09T05:00:03.228Z,19.87
2016-09-09T05:00:30.726Z,19.90
2016-09-09T05:00:52.457Z,19.90
2016-09-09T05:01:14.230Z,19.94
2016-09-09T05:01:35.952Z,19.96
2016-09-09T05:01:57.671Z,19.96
2016-09-09T05:02:19.395Z,19.98